Time;durP1;ratioP1;P1;durP2;ratioP2;P2;SDS_P1;SDS_P2;PMS_P1;PMS_P2;Temp;Humidity;BMP_temperature;BMP_pressure;BME280_temperature;BME280_humidity;BME280_pressure;Samples;Min_cycle;Max_cycle;Signal;HPM_P1;HPM_P2
2021/01/18 00:00:41;;;;;;;26.67;15.13;;;;;;;;;;5099992;28;20469;-73
2021/01/18 00:03:09;;;;;;;23.20;15.00;;;;;;;;;;5100252;28;20470;-73
2021/01/18 00:05:36;;;;;;;29.03;14.90;;;;;;;;;;5099943;28;20450;-73
2021/01/18 00:08:04;;;;;;;26.30;15.50;;;;;;;;;;5099387;28;20510;-74
2021/01/18 00:10:31;;;;;;;24.97;14.80;;;;;;;;;;5099711;28;20810;-73
2021/01/18 00:12:59;;;;;;;27.73;15.10;;;;;;;;;;5099361;28;20558;-73
2021/01/18 00:15:27;;;;;;;23.20;16.17;;;;;;;;;;5099206;28;20464;-73
2021/01/18 00:17:55;;;;;;;26.60;15.97;;;;;;;;;;5099479;28;20467;-73
2021/01/18 00:20:23;;;;;;;29.80;18.57;;;;;;;;;;5099434;28;20505;-73
2021/01/18 00:22:51;;;;;;;27.03;15.83;;;;;;;;;;5099022;28;20464;-73
2021/01/18 00:25:19;;;;;;;28.43;16.37;;;;;;;;;;5099343;28;20471;-73
2021/01/18 00:27:47;;;;;;;24.90;15.17;;;;;;;;;;5098719;28;20479;-73
2021/01/18 00:30:15;;;;;;;25.60;15.13;;;;;;;;;;5099067;28;20456;-73
2021/01/18 00:32:43;;;;;;;27.40;15.73;;;;;;;;;;5098642;28;20484;-73
2021/01/18 00:35:12;;;;;;;26.23;16.50;;;;;;;;;;5097926;28;20788;-73
2021/01/18 00:37:43;;;;;;;30.57;16.30;;;;;;;;;;5097878;28;20886;-73
2021/01/18 00:40:10;;;;;;;25.20;17.13;;;;;;;;;;5097709;28;20897;-73
2021/01/18 00:42:39;;;;;;;25.27;15.17;;;;;;;;;;5098090;28;20770;-73
2021/01/18 00:45:07;;;;;;;27.17;16.80;;;;;;;;;;5098521;28;20470;-73
2021/01/18 00:47:39;;;;;;;25.40;15.20;;;;;;;;;;5098074;28;20771;-73
2021/01/18 00:50:08;;;;;;;25.80;15.60;;;;;;;;;;5098254;28;20743;-73
2021/01/18 00:52:40;;;;;;;29.43;17.00;;;;;;;;;;5098894;28;20810;-73
2021/01/18 00:55:08;;;;;;;31.03;16.77;;;;;;;;;;5097789;28;20517;-74
2021/01/18 00:57:38;;;;;;;28.70;16.83;;;;;;;;;;5097752;28;20521;-73
2021/01/18 01:00:20;;;;;;;29.30;15.80;;;;;;;;;;5098134;28;20817;-73
2021/01/18 01:02:49;;;;;;;26.13;16.97;;;;;;;;;;5097848;28;20488;-73
2021/01/18 01:05:18;;;;;;;25.77;15.77;;;;;;;;;;5097595;28;20818;-73
2021/01/18 01:07:46;;;;;;;29.07;18.10;;;;;;;;;;5097525;28;20452;-73
2021/01/18 01:10:15;;;;;;;28.20;16.63;;;;;;;;;;5098082;28;20541;-74
2021/01/18 01:12:42;;;;;;;31.90;18.83;;;;;;;;;;5097389;28;20491;-74
2021/01/18 01:15:10;;;;;;;25.83;17.03;;;;;;;;;;5098795;28;20878;-74
2021/01/18 01:17:41;;;;;;;26.93;16.93;;;;;;;;;;5098354;28;20451;-73
2021/01/18 01:20:10;;;;;;;32.20;17.38;;;;;;;;;;5098000;28;20500;-73
2021/01/18 01:22:39;;;;;;;29.97;18.40;;;;;;;;;;5098042;28;20209;-73
2021/01/18 01:25:07;;;;;;;30.30;16.70;;;;;;;;;;5098283;28;20794;-74
2021/01/18 01:27:34;;;;;;;28.30;17.57;;;;;;;;;;5097918;28;20460;-73
2021/01/18 01:30:02;;;;;;;31.37;16.47;;;;;;;;;;5097914;28;20555;-73
2021/01/18 01:32:29;;;;;;;31.13;19.10;;;;;;;;;;5097539;28;20499;-73
2021/01/18 01:34:56;;;;;;;29.43;17.60;;;;;;;;;;5098038;28;20585;-73
2021/01/18 01:37:24;;;;;;;36.13;19.70;;;;;;;;;;5097982;28;20467;-73
2021/01/18 01:39:52;;;;;;;37.80;19.53;;;;;;;;;;5098120;28;20464;-73
2021/01/18 01:42:20;;;;;;;27.80;16.27;;;;;;;;;;5098601;28;20444;-74
2021/01/18 01:44:48;;;;;;;37.87;17.93;;;;;;;;;;5098008;28;20478;-73
2021/01/18 01:47:22;;;;;;;35.63;17.75;;;;;;;;;;5097345;28;20452;-74
2021/01/18 01:49:50;;;;;;;28.67;14.97;;;;;;;;;;5097657;28;20554;-73
2021/01/18 01:52:17;;;;;;;34.17;17.87;;;;;;;;;;5097108;28;20515;-73
2021/01/18 01:54:45;;;;;;;31.88;17.95;;;;;;;;;;5097021;28;20541;-73
2021/01/18 01:57:13;;;;;;;34.10;18.67;;;;;;;;;;5097767;28;20297;-73
2021/01/18 01:59:40;;;;;;;29.73;18.90;;;;;;;;;;5097459;28;20989;-73
2021/01/18 02:02:08;;;;;;;31.67;18.43;;;;;;;;;;5096130;28;20747;-73
2021/01/18 02:04:39;;;;;;;34.23;19.40;;;;;;;;;;5097901;28;20472;-73
2021/01/18 02:07:21;;;;;;;32.47;19.40;;;;;;;;;;5097358;28;20584;-73
2021/01/18 02:09:48;;;;;;;34.40;18.10;;;;;;;;;;5097591;28;20548;-74
2021/01/18 02:12:17;;;;;;;33.13;19.00;;;;;;;;;;5097351;28;20487;-74
2021/01/18 02:14:48;;;;;;;32.57;20.87;;;;;;;;;;5097127;28;20547;-73
2021/01/18 02:17:24;;;;;;;31.33;18.57;;;;;;;;;;5097176;28;20452;-73
2021/01/18 02:20:06;;;;;;;30.93;18.77;;;;;;;;;;5097019;28;20470;-73
2021/01/18 02:22:53;;;;;;;30.67;17.87;;;;;;;;;;5097507;28;20640;-73
2021/01/18 02:25:24;;;;;;;28.67;17.50;;;;;;;;;;5096653;28;20460;-73
2021/01/18 02:28:13;;;;;;;33.90;17.60;;;;;;;;;;5096451;28;20462;-74
2021/01/18 02:30:56;;;;;;;26.80;16.50;;;;;;;;;;5096802;28;20866;-73
2021/01/18 02:33:31;;;;;;;33.20;19.70;;;;;;;;;;5096392;28;20456;-73
2021/01/18 02:36:08;;;;;;;31.93;19.43;;;;;;;;;;5096703;28;20462;-73
2021/01/18 02:38:39;;;;;;;32.63;18.10;;;;;;;;;;5096318;28;20452;-73
2021/01/18 02:41:12;;;;;;;33.27;19.70;;;;;;;;;;5096128;28;20451;-73
2021/01/18 02:43:43;;;;;;;32.27;18.10;;;;;;;;;;5097055;28;20468;-73
2021/01/18 02:46:12;;;;;;;29.00;18.47;;;;;;;;;;5096528;28;20551;-73
2021/01/18 02:48:40;;;;;;;33.93;19.37;;;;;;;;;;5096762;28;20859;-72
2021/01/18 02:51:09;;;;;;;36.37;19.23;;;;;;;;;;5096629;28;20576;-73
2021/01/18 02:53:39;;;;;;;39.27;19.83;;;;;;;;;;5096719;28;20841;-73
2021/01/18 02:56:07;;;;;;;27.97;17.50;;;;;;;;;;5096938;28;20463;-73
2021/01/18 02:58:37;;;;;;;34.17;18.73;;;;;;;;;;5096612;28;20470;-73
2021/01/18 03:01:10;;;;;;;32.27;17.80;;;;;;;;;;5096196;28;20525;-73
2021/01/18 03:03:45;;;;;;;31.83;18.97;;;;;;;;;;5096462;28;20471;-73
2021/01/18 03:06:17;;;;;;;35.27;19.87;;;;;;;;;;5095449;28;20491;-73
2021/01/18 03:08:47;;;;;;;30.80;17.13;;;;;;;;;;5095875;28;20476;-73
2021/01/18 03:11:19;;;;;;;35.53;19.63;;;;;;;;;;5096398;28;20491;-73
2021/01/18 03:13:49;;;;;;;37.60;19.17;;;;;;;;;;5096835;28;20491;-73
2021/01/18 03:16:18;;;;;;;36.40;20.80;;;;;;;;;;5100495;28;20464;-73
2021/01/18 03:18:47;;;;;;;37.30;20.63;;;;;;;;;;5100299;28;20455;-73
2021/01/18 03:21:17;;;;;;;33.20;20.57;;;;;;;;;;5099953;28;20566;-73
2021/01/18 03:23:44;;;;;;;38.03;20.70;;;;;;;;;;5100273;28;20484;-72
2021/01/18 03:26:12;;;;;;;35.83;19.97;;;;;;;;;;5099665;28;20807;-74
2021/01/18 03:28:40;;;;;;;37.27;20.57;;;;;;;;;;5100255;28;20895;-74
2021/01/18 03:31:07;;;;;;;36.10;20.83;;;;;;;;;;5099924;28;20864;-73
2021/01/18 03:33:34;;;;;;;33.73;20.10;;;;;;;;;;5099833;28;20471;-73
2021/01/18 03:36:02;;;;;;;35.97;19.93;;;;;;;;;;5099533;28;20500;-73
2021/01/18 03:38:30;;;;;;;34.27;20.80;;;;;;;;;;5100230;28;20608;-74
2021/01/18 03:40:58;;;;;;;33.00;19.70;;;;;;;;;;5100219;28;20452;-74
2021/01/18 03:43:25;;;;;;;36.63;20.07;;;;;;;;;;5100098;28;20455;-74
2021/01/18 03:45:52;;;;;;;34.03;18.23;;;;;;;;;;5100577;28;20735;-73
2021/01/18 03:48:20;;;;;;;39.70;20.87;;;;;;;;;;5100152;28;20444;-74
2021/01/18 03:50:48;;;;;;;30.33;17.90;;;;;;;;;;5099611;28;20543;-74
2021/01/18 03:53:15;;;;;;;39.40;19.20;;;;;;;;;;5099630;28;20723;-74
2021/01/18 03:55:43;;;;;;;33.67;19.43;;;;;;;;;;5099700;28;20843;-75
2021/01/18 03:58:11;;;;;;;34.67;18.73;;;;;;;;;;5099704;28;20452;-74
2021/01/18 04:00:38;;;;;;;32.90;18.17;;;;;;;;;;5099554;28;20462;-73
2021/01/18 04:03:06;;;;;;;36.57;19.50;;;;;;;;;;5099875;28;20456;-73
2021/01/18 04:05:34;;;;;;;40.83;20.57;;;;;;;;;;5099627;28;20455;-74
2021/01/18 04:08:01;;;;;;;39.00;18.90;;;;;;;;;;5099169;28;20490;-73
2021/01/18 04:10:29;;;;;;;38.80;19.67;;;;;;;;;;5099579;28;20794;-74
2021/01/18 04:12:58;;;;;;;38.67;20.53;;;;;;;;;;5099154;28;20591;-73
2021/01/18 04:15:27;;;;;;;40.63;19.90;;;;;;;;;;5098596;28;20856;-74
2021/01/18 04:17:55;;;;;;;37.60;20.60;;;;;;;;;;5099000;28;20448;-74
2021/01/18 04:20:22;;;;;;;37.20;19.87;;;;;;;;;;5099239;28;20506;-74
2021/01/18 04:22:50;;;;;;;34.37;19.57;;;;;;;;;;5099329;28;20465;-74
2021/01/18 04:25:18;;;;;;;41.07;21.43;;;;;;;;;;5097867;28;20463;-74
2021/01/18 04:27:46;;;;;;;38.43;19.97;;;;;;;;;;5099028;28;20480;-74
2021/01/18 04:30:16;;;;;;;36.33;19.70;;;;;;;;;;5099162;28;20554;-73
2021/01/18 04:32:43;;;;;;;33.77;18.80;;;;;;;;;;5098737;28;20491;-74
2021/01/18 04:35:11;;;;;;;37.67;19.10;;;;;;;;;;5098626;28;20464;-73
2021/01/18 04:37:38;;;;;;;35.30;18.80;;;;;;;;;;5098737;28;20452;-74
2021/01/18 04:40:07;;;;;;;38.17;20.20;;;;;;;;;;5098528;28;20773;-74
2021/01/18 04:42:34;;;;;;;36.53;18.60;;;;;;;;;;5098673;28;20460;-74
2021/01/18 04:45:02;;;;;;;36.23;20.27;;;;;;;;;;5098590;28;20460;-74
2021/01/18 04:47:31;;;;;;;39.30;18.23;;;;;;;;;;5098809;28;20544;-74
2021/01/18 04:49:59;;;;;;;39.57;18.13;;;;;;;;;;5098656;28;20763;-74
2021/01/18 04:52:35;;;;;;;37.80;18.63;;;;;;;;;;5097529;28;20578;-75
2021/01/18 04:55:04;;;;;;;41.90;19.90;;;;;;;;;;5098791;28;20470;-74
2021/01/18 04:57:33;;;;;;;38.50;18.73;;;;;;;;;;5098440;28;20490;-74
2021/01/18 05:00:02;;;;;;;40.10;19.70;;;;;;;;;;5098041;28;20548;-74
2021/01/18 05:02:39;;;;;;;32.07;16.70;;;;;;;;;;5098728;28;20753;-74
2021/01/18 05:05:15;;;;;;;30.80;18.60;;;;;;;;;;5098096;28;20766;-74
2021/01/18 05:08:03;;;;;;;38.50;17.60;;;;;;;;;;5098175;28;20483;-73
2021/01/18 05:10:32;;;;;;;31.73;14.03;;;;;;;;;;5093110;28;20518;-75
2021/01/18 05:13:01;;;;;;;33.03;14.90;;;;;;;;;;5097514;28;20492;-74
2021/01/18 05:15:31;;;;;;;36.60;17.97;;;;;;;;;;5098428;28;20460;-74
2021/01/18 05:18:07;;;;;;;37.33;15.63;;;;;;;;;;5098556;28;20516;-74
2021/01/18 05:20:34;;;;;;;31.83;14.30;;;;;;;;;;5096251;28;20462;-74
2021/01/18 05:23:07;;;;;;;28.67;14.70;;;;;;;;;;5093458;28;20463;-74
2021/01/18 05:25:35;;;;;;;30.87;14.63;;;;;;;;;;5077781;28;20555;-74
2021/01/18 05:28:04;;;;;;;33.27;13.97;;;;;;;;;;5084338;28;20456;-74
2021/01/18 05:30:32;;;;;;;28.00;13.13;;;;;;;;;;5097724;28;20468;-74
2021/01/18 05:33:04;;;;;;;31.00;13.23;;;;;;;;;;5097625;28;20487;-74
2021/01/18 05:35:32;;;;;;;26.13;11.77;;;;;;;;;;5096338;28;20524;-73
2021/01/18 05:38:00;;;;;;;26.40;11.67;;;;;;;;;;5096600;28;20521;-73
2021/01/18 05:40:28;;;;;;;24.37;12.27;;;;;;;;;;5097126;28;20552;-74
2021/01/18 05:43:02;;;;;;;25.57;11.97;;;;;;;;;;5097251;28;20735;-73
2021/01/18 05:45:30;;;;;;;27.00;11.60;;;;;;;;;;5096838;28;20555;-73
2021/01/18 05:47:58;;;;;;;25.80;11.97;;;;;;;;;;5097156;28;20540;-73
2021/01/18 05:50:27;;;;;;;31.23;14.20;;;;;;;;;;5097245;28;20884;-73
2021/01/18 05:52:58;;;;;;;37.00;11.93;;;;;;;;;;5097568;28;20494;-73
2021/01/18 05:55:26;;;;;;;30.80;11.83;;;;;;;;;;5096722;28;20456;-73
2021/01/18 05:57:55;;;;;;;30.70;12.67;;;;;;;;;;5090515;28;20457;-73
2021/01/18 06:00:26;;;;;;;25.90;11.73;;;;;;;;;;5095136;28;20912;-73
2021/01/18 06:02:54;;;;;;;25.90;11.87;;;;;;;;;;5117225;28;20518;-74
2021/01/18 06:05:26;;;;;;;29.30;13.10;;;;;;;;;;5100497;28;20460;-73
2021/01/18 06:07:54;;;;;;;26.43;11.57;;;;;;;;;;5081426;28;20457;-73
2021/01/18 06:10:33;;;;;;;22.37;11.13;;;;;;;;;;5076111;28;20881;-73
2021/01/18 06:13:01;;;;;;;22.60;10.90;;;;;;;;;;5076437;28;20492;-73
2021/01/18 06:15:29;;;;;;;28.93;13.93;;;;;;;;;;5091649;28;20462;-73
2021/01/18 06:17:58;;;;;;;26.93;11.70;;;;;;;;;;5107561;28;20459;-73
2021/01/18 06:20:27;;;;;;;29.10;11.03;;;;;;;;;;5116317;28;20545;-73
2021/01/18 06:22:55;;;;;;;25.77;11.47;;;;;;;;;;5116418;28;20454;-73
2021/01/18 06:25:23;;;;;;;28.50;12.37;;;;;;;;;;5116270;28;20451;-73
2021/01/18 06:27:52;;;;;;;29.17;12.93;;;;;;;;;;5115913;28;20447;-73
2021/01/18 06:30:21;;;;;;;28.37;13.20;;;;;;;;;;5116442;28;20447;-73
2021/01/18 06:32:53;;;;;;;31.40;12.40;;;;;;;;;;5114789;28;20910;-74
2021/01/18 06:35:24;;;;;;;32.73;15.53;;;;;;;;;;5095663;28;20542;-73
2021/01/18 06:38:02;;;;;;;34.10;13.87;;;;;;;;;;5095604;28;20574;-74
2021/01/18 06:40:31;;;;;;;28.20;11.47;;;;;;;;;;5094835;28;20448;-74
2021/01/18 06:42:59;;;;;;;28.80;13.53;;;;;;;;;;5094749;28;20854;-73
2021/01/18 06:45:34;;;;;;;34.93;14.83;;;;;;;;;;5094575;28;20481;-74
2021/01/18 06:48:02;;;;;;;36.33;15.53;;;;;;;;;;5094256;28;20461;-73
2021/01/18 06:50:30;;;;;;;29.67;13.97;;;;;;;;;;5094589;28;20888;-73
2021/01/18 06:52:58;;;;;;;33.73;13.20;;;;;;;;;;5094804;28;20764;-74
2021/01/18 06:55:28;;;;;;;40.53;15.10;;;;;;;;;;5094350;28;20856;-74
2021/01/18 06:58:04;;;;;;;32.97;13.97;;;;;;;;;;5095198;28;20539;-73
2021/01/18 07:00:32;;;;;;;29.10;13.50;;;;;;;;;;5094740;28;20589;-74
2021/01/18 07:03:00;;;;;;;23.40;10.80;;;;;;;;;;5095358;28;20934;-73
2021/01/18 07:05:35;;;;;;;26.60;11.83;;;;;;;;;;5094230;28;20454;-73
2021/01/18 07:08:18;;;;;;;25.30;12.63;;;;;;;;;;5094763;28;20486;-73
2021/01/18 07:10:47;;;;;;;36.20;13.67;;;;;;;;;;5094597;28;20929;-73
2021/01/18 07:13:14;;;;;;;28.93;13.47;;;;;;;;;;5093737;28;20487;-73
2021/01/18 07:15:43;;;;;;;24.97;13.80;;;;;;;;;;5093805;28;20456;-73
2021/01/18 07:18:12;;;;;;;28.00;15.07;;;;;;;;;;5094043;28;20452;-73
2021/01/18 07:20:41;;;;;;;35.03;14.50;;;;;;;;;;5093784;28;20868;-73
2021/01/18 07:23:32;;;;;;;26.03;13.00;;;;;;;;;;5094889;28;20871;-73
2021/01/18 07:26:16;;;;;;;35.60;14.20;;;;;;;;;;5095245;28;20542;-73
2021/01/18 07:28:48;;;;;;;26.13;12.13;;;;;;;;;;5095056;28;21037;-74
2021/01/18 07:31:18;;;;;;;19.57;8.73;;;;;;;;;;5094106;28;20456;-72
2021/01/18 07:33:47;;;;;;;29.80;12.90;;;;;;;;;;5091978;28;20454;-73
2021/01/18 07:36:23;;;;;;;38.93;15.30;;;;;;;;;;5088768;28;20562;-73
2021/01/18 07:38:51;;;;;;;35.17;15.03;;;;;;;;;;5094585;28;20444;-73
2021/01/18 07:41:29;;;;;;;32.00;12.13;;;;;;;;;;5094588;28;20474;-73
2021/01/18 07:43:57;;;;;;;33.90;13.03;;;;;;;;;;5094481;28;21026;-73
2021/01/18 07:46:40;;;;;;;30.67;13.20;;;;;;;;;;5093941;28;20460;-74
2021/01/18 07:49:26;;;;;;;37.83;16.40;;;;;;;;;;5090170;28;20452;-74
2021/01/18 07:52:15;;;;;;;37.03;15.53;;;;;;;;;;5074378;28;20498;-73
2021/01/18 07:54:43;;;;;;;36.80;14.60;;;;;;;;;;5074110;28;20586;-74
2021/01/18 07:57:40;;;;;;;29.03;13.67;;;;;;;;;;5073239;28;20514;-74
2021/01/18 08:00:40;;;;;;;34.43;15.93;;;;;;;;;;5074654;28;20453;-74
2021/01/18 08:03:22;;;;;;;35.90;14.80;;;;;;;;;;5077535;28;20468;-74
2021/01/18 08:05:52;;;;;;;42.70;14.87;;;;;;;;;;5093657;28;20737;-74
2021/01/18 08:08:20;;;;;;;29.50;12.50;;;;;;;;;;5098533;28;20484;-74
2021/01/18 08:10:50;;;;;;;34.80;13.43;;;;;;;;;;5097952;28;20472;-73
2021/01/18 08:13:37;;;;;;;38.13;14.53;;;;;;;;;;5097668;28;20493;-73
2021/01/18 08:16:15;;;;;;;34.07;15.00;;;;;;;;;;5097804;28;20527;-74
2021/01/18 08:18:53;;;;;;;32.03;13.87;;;;;;;;;;5097324;28;20558;-74
2021/01/18 08:21:42;;;;;;;31.70;11.80;;;;;;;;;;5097089;28;20455;-74
2021/01/18 08:24:11;;;;;;;29.83;13.10;;;;;;;;;;5097767;28;20824;-74
2021/01/18 08:26:57;;;;;;;24.90;12.20;;;;;;;;;;5096506;28;20456;-74
2021/01/18 08:29:39;;;;;;;28.27;12.07;;;;;;;;;;5077426;28;20457;-74
2021/01/18 08:32:34;;;;;;;30.37;11.57;;;;;;;;;;5076940;28;20496;-73
2021/01/18 08:35:04;;;;;;;21.03;10.97;;;;;;;;;;5095760;28;20617;-73
2021/01/18 08:37:33;;;;;;;34.57;13.13;;;;;;;;;;5097647;28;20954;-74
2021/01/18 08:40:01;;;;;;;33.80;12.87;;;;;;;;;;5098050;28;20460;-73
2021/01/18 08:42:36;;;;;;;22.83;11.97;;;;;;;;;;5096954;28;20547;-74
2021/01/18 08:45:05;;;;;;;24.50;11.53;;;;;;;;;;5093363;28;20452;-73
2021/01/18 08:47:39;;;;;;;27.93;11.40;;;;;;;;;;5097115;28;20490;-73
2021/01/18 08:50:20;;;;;;;23.77;11.77;;;;;;;;;;5098473;28;20451;-74
2021/01/18 08:52:48;;;;;;;23.53;11.80;;;;;;;;;;5097693;28;20594;-73
2021/01/18 08:55:49;;;;;;;30.83;15.17;;;;;;;;;;5097080;28;20464;-74
2021/01/18 08:58:31;;;;;;;28.27;10.30;;;;;;;;;;5035324;28;20859;-74
2021/01/18 09:00:59;;;;;;;26.37;12.57;;;;;;;;;;5034790;28;20447;-73
2021/01/18 09:03:26;;;;;;;25.93;12.30;;;;;;;;;;5069178;28;20829;-73
2021/01/18 09:05:55;;;;;;;24.83;11.33;;;;;;;;;;5097005;28;20872;-74
2021/01/18 09:08:24;;;;;;;26.63;11.90;;;;;;;;;;5096511;28;20448;-73
2021/01/18 09:10:53;;;;;;;21.40;8.07;;;;;;;;;;5096096;28;20462;-73
2021/01/18 09:13:33;;;;;;;19.87;8.50;;;;;;;;;;5096510;28;20574;-73
2021/01/18 09:16:01;;;;;;;29.93;10.30;;;;;;;;;;5095769;28;20458;-73
2021/01/18 09:18:29;;;;;;;19.53;9.20;;;;;;;;;;5096114;28;20452;-72
2021/01/18 09:20:57;;;;;;;16.37;8.40;;;;;;;;;;5096080;28;20456;-73
2021/01/18 09:23:26;;;;;;;19.13;8.13;;;;;;;;;;5096062;28;20533;-73
2021/01/18 09:26:07;;;;;;;18.83;8.57;;;;;;;;;;5096187;28;20490;-74
2021/01/18 09:28:35;;;;;;;30.03;8.37;;;;;;;;;;5096585;28;20475;-73
2021/01/18 09:31:20;;;;;;;17.90;8.90;;;;;;;;;;5096145;28;20459;-73
2021/01/18 09:33:53;;;;;;;21.53;8.60;;;;;;;;;;5096322;28;20512;-73
2021/01/18 09:36:22;;;;;;;27.20;10.47;;;;;;;;;;5095504;28;20496;-72
2021/01/18 09:38:51;;;;;;;14.87;7.13;;;;;;;;;;5096515;28;20872;-73
2021/01/18 09:41:19;;;;;;;21.90;7.87;;;;;;;;;;5096783;28;20459;-73
2021/01/18 09:43:49;;;;;;;30.83;8.53;;;;;;;;;;5083526;28;20461;-73
2021/01/18 09:46:20;;;;;;;17.53;8.07;;;;;;;;;;5076138;28;20461;-73
2021/01/18 09:48:50;;;;;;;25.10;8.00;;;;;;;;;;5075827;28;20484;-73
2021/01/18 09:51:19;;;;;;;18.40;7.40;;;;;;;;;;5078371;28;20865;-73
2021/01/18 09:53:47;;;;;;;24.90;8.00;;;;;;;;;;5095934;28;20483;-73
2021/01/18 09:56:17;;;;;;;16.63;8.77;;;;;;;;;;5094578;28;20486;-73
2021/01/18 09:58:46;;;;;;;19.90;7.10;;;;;;;;;;5085813;28;20457;-73
2021/01/18 10:01:24;;;;;;;26.70;11.50;;;;;;;;;;5075906;28;20602;-74
2021/01/18 10:03:55;;;;;;;21.27;10.30;;;;;;;;;;5081053;28;20483;-73
2021/01/18 10:06:25;;;;;;;17.80;10.77;;;;;;;;;;5095368;28;20486;-73
2021/01/18 10:08:54;;;;;;;23.23;9.90;;;;;;;;;;5095991;28;20567;-73
2021/01/18 10:11:33;;;;;;;18.57;8.60;;;;;;;;;;5094652;28;20531;-74
2021/01/18 10:14:04;;;;;;;25.53;10.43;;;;;;;;;;5087754;28;20468;-73
2021/01/18 10:16:31;;;;;;;20.00;9.10;;;;;;;;;;5095946;28;20467;-74
2021/01/18 10:18:59;;;;;;;18.47;10.13;;;;;;;;;;5077449;28;20465;-73
2021/01/18 10:21:34;;;;;;;22.93;9.10;;;;;;;;;;5074967;28;20464;-74
2021/01/18 10:24:01;;;;;;;19.97;8.90;;;;;;;;;;5074233;28;20471;-73
2021/01/18 10:26:30;;;;;;;17.53;9.53;;;;;;;;;;5073365;28;20463;-73
2021/01/18 10:28:59;;;;;;;34.40;8.93;;;;;;;;;;5074720;28;20441;-73
2021/01/18 10:31:27;;;;;;;16.63;8.00;;;;;;;;;;5075156;28;20488;-74
2021/01/18 10:34:13;;;;;;;19.83;8.60;;;;;;;;;;5074706;28;20453;-73
2021/01/18 10:36:42;;;;;;;23.63;9.50;;;;;;;;;;5074934;28;20552;-73
2021/01/18 10:39:10;;;;;;;20.73;9.30;;;;;;;;;;5073826;28;20560;-72
2021/01/18 10:41:40;;;;;;;19.07;9.00;;;;;;;;;;5084762;28;20447;-73
2021/01/18 10:44:08;;;;;;;17.57;8.70;;;;;;;;;;5095603;28;20471;-73
2021/01/18 10:46:36;;;;;;;23.33;8.73;;;;;;;;;;5095680;28;20456;-73
2021/01/18 10:49:06;;;;;;;18.23;8.90;;;;;;;;;;5095143;28;20467;-73
2021/01/18 10:51:33;;;;;;;13.83;7.33;;;;;;;;;;5094028;28;20464;-73
2021/01/18 10:54:01;;;;;;;24.87;6.87;;;;;;;;;;5093921;28;20464;-73
2021/01/18 10:56:33;;;;;;;18.47;8.00;;;;;;;;;;5093926;28;20464;-73
2021/01/18 10:59:02;;;;;;;15.77;8.80;;;;;;;;;;5090934;28;20468;-73
2021/01/18 11:01:30;;;;;;;13.90;7.70;;;;;;;;;;5094323;28;20475;-72
2021/01/18 11:04:05;;;;;;;21.60;8.90;;;;;;;;;;5113416;28;20557;-73
2021/01/18 11:06:39;;;;;;;19.73;9.77;;;;;;;;;;5114189;28;20510;-72
2021/01/18 11:09:19;;;;;;;15.83;8.83;;;;;;;;;;5104038;28;20731;-72
2021/01/18 11:11:50;;;;;;;18.03;7.73;;;;;;;;;;5092366;28;20704;-73
2021/01/18 11:14:25;;;;;;;12.60;6.80;;;;;;;;;;5094709;28;20521;-74
2021/01/18 11:17:03;;;;;;;19.50;8.50;;;;;;;;;;5094299;28;20465;-74
2021/01/18 11:19:30;;;;;;;14.37;8.90;;;;;;;;;;5094301;28;20491;-74
2021/01/18 11:21:58;;;;;;;22.33;8.67;;;;;;;;;;5094439;28;20464;-74
2021/01/18 11:24:27;;;;;;;15.40;8.87;;;;;;;;;;5093480;28;20800;-73
2021/01/18 11:26:55;;;;;;;12.57;6.80;;;;;;;;;;5094672;28;20713;-74
2021/01/18 11:29:29;;;;;;;18.53;8.80;;;;;;;;;;5094688;28;20991;-74
2021/01/18 11:31:56;;;;;;;14.23;8.13;;;;;;;;;;5093666;28;20488;-72
2021/01/18 11:34:24;;;;;;;12.53;7.97;;;;;;;;;;5092725;28;20465;-74
2021/01/18 11:36:51;;;;;;;22.03;7.60;;;;;;;;;;5096849;28;20475;-73
2021/01/18 11:39:22;;;;;;;18.10;8.37;;;;;;;;;;5091662;28;20928;-73
2021/01/18 11:41:50;;;;;;;14.63;8.20;;;;;;;;;;5078145;28;20783;-73
2021/01/18 11:44:18;;;;;;;12.07;7.87;;;;;;;;;;5078249;28;20461;-73
2021/01/18 11:46:47;;;;;;;18.93;10.30;;;;;;;;;;5085314;28;20463;-74
2021/01/18 11:49:18;;;;;;;19.50;8.37;;;;;;;;;;5097910;28;20459;-73
2021/01/18 11:51:45;;;;;;;19.70;9.53;;;;;;;;;;5098923;28;20900;-73
2021/01/18 11:54:14;;;;;;;21.73;8.03;;;;;;;;;;5097850;28;20470;-73
2021/01/18 11:56:42;;;;;;;15.80;8.20;;;;;;;;;;5097859;28;20459;-73
2021/01/18 11:59:09;;;;;;;15.00;9.53;;;;;;;;;;5097885;28;20473;-73
2021/01/18 12:01:44;;;;;;;13.40;7.87;;;;;;;;;;5097736;28;20551;-74
2021/01/18 12:04:12;;;;;;;11.50;6.80;;;;;;;;;;5097978;28;21023;-72
2021/01/18 12:06:40;;;;;;;18.07;9.60;;;;;;;;;;5098098;28;20456;-73
2021/01/18 12:09:08;;;;;;;14.47;7.83;;;;;;;;;;5097824;28;20850;-73
2021/01/18 12:11:37;;;;;;;18.70;9.13;;;;;;;;;;5098094;28;20463;-74
2021/01/18 12:14:04;;;;;;;22.23;11.00;;;;;;;;;;5098485;28;20479;-73
2021/01/18 12:16:32;;;;;;;15.80;9.37;;;;;;;;;;5097852;28;20448;-73
2021/01/18 12:19:00;;;;;;;17.47;9.70;;;;;;;;;;5097674;28;20485;-73
2021/01/18 12:21:29;;;;;;;17.10;10.90;;;;;;;;;;5097189;28;20535;-73
2021/01/18 12:23:56;;;;;;;13.07;7.20;;;;;;;;;;5095433;28;20476;-73
2021/01/18 12:26:24;;;;;;;25.07;9.53;;;;;;;;;;5098164;28;20783;-75
2021/01/18 12:28:51;;;;;;;13.27;8.87;;;;;;;;;;5083398;28;20479;-73
2021/01/18 12:31:19;;;;;;;21.43;10.90;;;;;;;;;;5098383;28;20607;-73
2021/01/18 12:33:53;;;;;;;25.87;11.33;;;;;;;;;;5092216;28;20611;-73
2021/01/18 12:36:23;;;;;;;25.93;10.80;;;;;;;;;;5095631;28;20520;-73
2021/01/18 12:38:59;;;;;;;18.60;9.63;;;;;;;;;;5109013;28;20824;-72
2021/01/18 12:41:27;;;;;;;19.90;10.87;;;;;;;;;;5118526;28;20490;-73
2021/01/18 12:43:54;;;;;;;22.07;13.43;;;;;;;;;;5099749;28;20470;-74
2021/01/18 12:46:22;;;;;;;27.70;12.73;;;;;;;;;;5096873;28;21011;-73
2021/01/18 12:48:49;;;;;;;20.60;9.83;;;;;;;;;;5097277;28;20467;-73
2021/01/18 12:51:19;;;;;;;24.20;13.30;;;;;;;;;;5095853;28;20451;-73
2021/01/18 12:53:46;;;;;;;23.63;12.67;;;;;;;;;;5089361;28;20772;-73
2021/01/18 12:56:25;;;;;;;15.13;9.30;;;;;;;;;;5084120;28;20457;-73
2021/01/18 12:58:52;;;;;;;18.03;11.53;;;;;;;;;;5092244;28;20464;-72
2021/01/18 13:01:27;;;;;;;20.57;10.33;;;;;;;;;;5114027;28;20463;-74
2021/01/18 13:03:54;;;;;;;26.60;12.27;;;;;;;;;;5116314;28;20503;-74
2021/01/18 13:06:22;;;;;;;14.43;8.00;;;;;;;;;;5104342;28;20539;-74
2021/01/18 13:08:50;;;;;;;20.23;10.10;;;;;;;;;;5097964;28;20893;-73
2021/01/18 13:11:22;;;;;;;22.77;13.23;;;;;;;;;;5096374;28;20856;-73
2021/01/18 13:13:50;;;;;;;17.47;9.90;;;;;;;;;;5095654;28;20519;-73
2021/01/18 13:16:20;;;;;;;16.73;9.73;;;;;;;;;;5097345;28;20516;-73
2021/01/18 13:18:48;;;;;;;16.07;8.63;;;;;;;;;;5097400;28;20863;-73
2021/01/18 13:21:22;;;;;;;21.53;11.77;;;;;;;;;;5097219;28;20456;-73
2021/01/18 13:23:49;;;;;;;17.90;10.47;;;;;;;;;;5096143;28;20916;-73
2021/01/18 13:26:19;;;;;;;20.40;11.63;;;;;;;;;;5097028;28;20472;-73
2021/01/18 13:28:47;;;;;;;19.53;10.37;;;;;;;;;;5097345;28;20841;-73
2021/01/18 13:31:17;;;;;;;17.23;10.33;;;;;;;;;;5096746;28;20456;-73
2021/01/18 13:33:46;;;;;;;17.83;9.00;;;;;;;;;;5096953;28;21116;-74
2021/01/18 13:36:20;;;;;;;17.63;11.10;;;;;;;;;;5096065;28;20464;-73
2021/01/18 13:38:52;;;;;;;20.87;12.77;;;;;;;;;;5096192;28;20466;-73
2021/01/18 13:41:24;;;;;;;13.20;7.80;;;;;;;;;;5096567;28;20512;-73
2021/01/18 13:43:52;;;;;;;17.73;11.00;;;;;;;;;;5096428;28;20484;-73
2021/01/18 13:46:20;;;;;;;17.97;11.40;;;;;;;;;;5095141;28;20752;-73
2021/01/18 13:48:47;;;;;;;24.37;11.70;;;;;;;;;;5094970;28;20771;-73
2021/01/18 13:51:15;;;;;;;18.80;9.40;;;;;;;;;;5095433;28;20452;-72
2021/01/18 13:53:43;;;;;;;19.10;11.87;;;;;;;;;;5095511;28;20556;-73
2021/01/18 13:56:14;;;;;;;23.13;12.40;;;;;;;;;;5095363;28;20494;-74
2021/01/18 13:58:44;;;;;;;20.33;11.03;;;;;;;;;;5094529;28;20729;-72
2021/01/18 14:01:12;;;;;;;19.60;11.47;;;;;;;;;;5095408;28;20465;-73
2021/01/18 14:03:39;;;;;;;20.00;10.50;;;;;;;;;;5095438;28;20793;-73
2021/01/18 14:06:07;;;;;;;19.30;11.70;;;;;;;;;;5082619;28;20554;-74
2021/01/18 14:08:34;;;;;;;23.27;12.53;;;;;;;;;;5082371;28;20871;-74
2021/01/18 14:11:02;;;;;;;22.60;11.60;;;;;;;;;;5095703;28;20468;-73
2021/01/18 14:13:29;;;;;;;23.40;10.00;;;;;;;;;;5095809;28;20573;-73
2021/01/18 14:15:57;;;;;;;19.00;11.50;;;;;;;;;;5095286;28;20506;-73
2021/01/18 14:18:25;;;;;;;24.27;11.67;;;;;;;;;;5093684;28;20456;-74
2021/01/18 14:20:56;;;;;;;18.27;12.07;;;;;;;;;;5091885;28;20540;-74
2021/01/18 14:23:23;;;;;;;19.27;12.00;;;;;;;;;;5081009;28;20492;-73
2021/01/18 14:25:50;;;;;;;16.47;9.40;;;;;;;;;;5094780;28;20452;-74
2021/01/18 14:28:18;;;;;;;17.37;9.57;;;;;;;;;;5095110;28;20460;-74
2021/01/18 14:30:46;;;;;;;21.80;9.17;;;;;;;;;;5095773;28;20597;-73
2021/01/18 14:33:14;;;;;;;17.90;9.00;;;;;;;;;;5095276;28;20502;-73
2021/01/18 14:35:42;;;;;;;7.63;5.50;;;;;;;;;;5094423;28;20448;-73
2021/01/18 14:38:11;;;;;;;21.20;9.90;;;;;;;;;;5093588;28;20556;-74
2021/01/18 14:40:44;;;;;;;18.30;10.23;;;;;;;;;;5087496;28;20471;-73